首页
METAR-TAF:

METAR-TAF

机场 :

倫敦希斯路機場, 英格兰

纬度: 51-29N, 经度: 000-27W, 海拔: 24米

当前天气观测

该预报发布于31分钟前的08:20 UTC
风速6节,风向西
温度 2°C
湿度 93%
气压 1026 hPa
能见度10公里或以上

METAR: EGLL 180820Z AUTO 27006KT 9999 NCD 02/01 Q1026 NOSIG

时间: 08:51 (08:51 UTC)

预报

该预报发布于3小时和59分钟前的04:52 UTC
预报有效从18日的 06点(UTC)到 19日的 12点(UTC)
风速10节,风向西南
能见度10公里或以上
散云层高于4000英尺
几率 30%
从 18日的 06点(UTC)到 18日的 09点(UTC)
能見度: 8000
成为
从 18日的 10点(UTC)到 18日的 13点(UTC)
风速6节,风向西北
几率 30%
从 18日的 21点(UTC)到 19日的 09点(UTC)
能見度: 8000

TAF: EGLL 180452Z 1806/1912 23010KT 9999 SCT040 PROB30 1806/1809 8000 BECMG 1810/1813 32006KT PROB30 1821/1909 8000

超过4000个机场的气象观测和天气预报(METAR&TAF报告)。

可查询的气象台以黄色和红色小点在地图上表示。

将鼠标移到小点上方,可查看气象台名称。

然后点击查看天气观测和预报。

如需切换地图:点击带黑十字的绿色按钮放大地图;点击带横线的绿色按钮缩小地图;或者点击绿色箭头查看邻近地区的地图。


METAR-TAF: